createdAt,value
2017-11-28T00:01:12.974Z,99706.17
2017-11-28T00:03:42.778Z,99697.34
2017-11-28T00:06:12.675Z,99694.82
2017-11-28T00:08:41.742Z,99698.19
2017-11-28T00:13:45.924Z,99699.45
2017-11-28T00:16:14.942Z,99699.45
2017-11-28T00:18:47.496Z,99712.90
2017-11-28T00:21:19.868Z,99703.56
2017-11-28T00:23:49.053Z,99717.35
2017-11-28T00:26:19.821Z,99715.22
2017-11-28T00:28:49.051Z,99702.20
2017-11-28T00:31:19.321Z,99703.05
2017-11-28T00:33:48.527Z,99704.30
2017-11-28T00:36:18.068Z,99711.03
2017-11-28T00:41:24.310Z,99698.79
2017-11-28T00:43:54.375Z,99695.84
2017-11-28T00:46:24.323Z,99699.17
2017-11-28T00:48:53.544Z,99697.42
2017-11-28T00:51:23.145Z,99707.98
2017-11-28T00:53:52.479Z,99709.60
2017-11-28T00:56:21.552Z,99697.38
2017-11-28T00:58:51.362Z,99713.78
2017-11-28T01:01:21.373Z,99704.09
2017-11-28T01:03:51.499Z,99699.84
2017-11-28T01:06:20.494Z,99695.20
2017-11-28T01:08:51.530Z,99698.13
2017-11-28T01:11:20.929Z,99689.73
2017-11-28T01:13:50.337Z,99685.08
2017-11-28T01:16:20.326Z,99698.52
2017-11-28T01:18:50.316Z,99696.86
2017-11-28T01:21:19.505Z,99709.87
2017-11-28T01:23:48.701Z,99690.99
2017-11-28T01:26:18.215Z,99698.97
2017-11-28T01:28:48.422Z,99695.94
2017-11-28T01:31:18.521Z,99693.84
2017-11-28T01:33:48.297Z,99698.44
2017-11-28T01:36:17.523Z,99694.23
2017-11-28T01:38:46.729Z,99699.75
2017-11-28T01:41:16.028Z,99694.66
2017-11-28T01:43:45.321Z,99704.67
2017-11-28T01:46:14.628Z,99699.22
2017-11-28T01:48:43.877Z,99692.52
2017-11-28T01:51:13.015Z,99697.56
2017-11-28T01:56:18.687Z,99709.59
2017-11-28T01:58:47.988Z,99701.18
2017-11-28T02:01:18.094Z,99698.64
2017-11-28T02:03:47.252Z,99713.36
2017-11-28T02:06:16.508Z,99721.23
2017-11-28T02:08:46.837Z,99699.51
2017-11-28T02:11:16.137Z,99705.27
2017-11-28T02:13:45.700Z,99714.90
2017-11-28T02:16:14.941Z,99716.25
2017-11-28T02:18:45.868Z,99707.85
2017-11-28T02:21:16.047Z,99716.68
2017-11-28T02:23:45.221Z,99711.67
2017-11-28T02:26:15.497Z,99702.41
2017-11-28T02:28:46.499Z,99720.87
2017-11-28T02:31:15.758Z,99711.59
2017-11-28T02:33:45.910Z,99699.41
2017-11-28T02:36:16.824Z,99701.06
2017-11-28T02:38:46.375Z,99697.72
2017-11-28T02:41:17.421Z,99696.95
2017-11-28T02:43:48.469Z,99696.98
2017-11-28T02:46:18.465Z,99706.13
2017-11-28T02:49:05.315Z,99704.45
2017-11-28T02:51:39.303Z,99703.17
2017-11-28T02:54:08.648Z,99699.75
2017-11-28T02:56:37.893Z,99704.84
2017-11-28T02:59:08.512Z,99714.07
2017-11-28T03:01:48.368Z,99705.70
2017-11-28T03:04:17.524Z,99702.78
2017-11-28T03:06:47.801Z,99708.61
2017-11-28T03:09:19.855Z,99699.81
2017-11-28T03:11:50.012Z,99714.08
2017-11-28T03:14:25.888Z,99713.21
2017-11-28T03:16:56.983Z,99702.77
2017-11-28T03:22:27.375Z,99710.73
2017-11-28T03:25:04.971Z,99724.13
2017-11-28T03:27:33.708Z,99724.13
2017-11-28T03:30:02.482Z,99732.96
2017-11-28T03:32:32.432Z,99736.92
2017-11-28T03:35:01.391Z,99742.80
2017-11-28T03:37:33.122Z,99758.77
2017-11-28T03:40:04.624Z,99774.66
2017-11-28T03:42:34.486Z,99774.52
2017-11-28T03:45:26.701Z,99767.98
2017-11-28T03:47:57.110Z,99769.18
2017-11-28T03:50:26.343Z,99775.43
2017-11-28T03:52:55.853Z,99766.50
2017-11-28T03:55:26.260Z,99763.80
2017-11-28T03:57:55.508Z,99761.63
2017-11-28T04:00:25.118Z,99764.63
2017-11-28T04:02:55.062Z,99763.81
2017-11-28T04:05:24.292Z,99780.56
2017-11-28T04:07:55.337Z,99778.02
2017-11-28T04:10:24.467Z,99775.88
2017-11-28T04:12:54.034Z,99782.16
2017-11-28T04:15:26.971Z,99775.48
2017-11-28T04:17:57.309Z,99780.45
2017-11-28T04:20:28.456Z,99787.86
2017-11-28T04:22:57.648Z,99801.22
2017-11-28T04:25:26.924Z,99783.28
2017-11-28T04:27:56.022Z,99800.08
2017-11-28T04:30:25.287Z,99807.34
2017-11-28T04:33:02.709Z,99803.47
2017-11-28T04:35:31.926Z,99806.08
2017-11-28T04:38:02.398Z,99818.37
2017-11-28T04:40:32.400Z,99817.63
2017-11-28T04:43:01.617Z,99822.16
2017-11-28T04:45:32.081Z,99812.59
2017-11-28T04:48:01.555Z,99820.06
2017-11-28T04:50:31.890Z,99812.67
2017-11-28T04:53:01.379Z,99819.66
2017-11-28T04:58:06.185Z,99825.36
2017-11-28T05:00:35.903Z,99828.34
2017-11-28T05:03:05.029Z,99831.14
2017-11-28T05:05:35.155Z,99823.95
2017-11-28T05:08:04.395Z,99835.24
2017-11-28T05:10:36.534Z,99837.27
2017-11-28T05:13:06.131Z,99845.19
2017-11-28T05:15:36.290Z,99839.42
2017-11-28T05:18:08.317Z,99839.00
2017-11-28T05:20:38.445Z,99858.39
2017-11-28T05:23:07.987Z,99861.58
2017-11-28T05:25:39.170Z,99882.61
2017-11-28T05:28:09.356Z,99880.70
2017-11-28T05:30:38.850Z,99888.21
2017-11-28T05:33:08.232Z,99896.44
2017-11-28T05:35:38.481Z,99894.25
2017-11-28T05:38:08.190Z,99899.72
2017-11-28T05:43:13.982Z,99907.92
2017-11-28T05:45:51.106Z,99914.31
2017-11-28T05:48:20.296Z,99912.01
2017-11-28T05:50:49.604Z,99913.88
2017-11-28T05:53:21.204Z,99924.52
2017-11-28T05:55:50.352Z,99919.02
2017-11-28T05:58:20.436Z,99920.83
2017-11-28T06:00:50.849Z,99925.24
2017-11-28T06:03:20.245Z,99928.42
2017-11-28T06:05:49.423Z,99922.59
2017-11-28T06:08:20.449Z,99914.66
2017-11-28T06:10:50.739Z,99919.23
2017-11-28T06:13:19.853Z,99918.36
2017-11-28T06:15:50.079Z,99921.47
2017-11-28T06:18:20.300Z,99918.06
2017-11-28T06:20:49.812Z,99929.52
2017-11-28T06:23:19.049Z,99934.55
2017-11-28T06:25:49.233Z,99940.82
2017-11-28T06:28:18.869Z,99952.55
2017-11-28T06:30:48.953Z,99965.58
2017-11-28T06:33:18.331Z,99970.75
2017-11-28T06:35:48.414Z,99968.36
2017-11-28T06:38:17.669Z,99970.99
2017-11-28T06:40:47.060Z,99989.95
2017-11-28T06:43:17.183Z,99992.08
2017-11-28T06:48:22.866Z,99999.72
2017-11-28T06:50:52.116Z,99995.42
2017-11-28T06:53:21.251Z,99993.66
2017-11-28T06:55:50.623Z,100000.84
2017-11-28T06:58:19.764Z,100002.16
2017-11-28T07:00:49.758Z,100000.16
2017-11-28T07:03:19.121Z,100003.11
2017-11-28T07:05:48.472Z,100002.72
2017-11-28T07:08:17.707Z,100007.78
2017-11-28T07:10:48.616Z,100018.19
2017-11-28T07:13:17.821Z,100014.47
2017-11-28T07:15:47.117Z,100008.19
2017-11-28T07:18:16.224Z,100008.03
2017-11-28T07:20:45.271Z,100009.00
2017-11-28T07:23:16.969Z,100023.33
2017-11-28T07:25:47.039Z,100030.13
2017-11-28T07:28:16.406Z,100035.06
2017-11-28T07:30:45.902Z,100032.66
2017-11-28T07:33:15.908Z,100038.91
2017-11-28T07:35:45.213Z,100040.67
2017-11-28T07:38:16.715Z,100036.39
2017-11-28T07:40:46.064Z,100044.02
2017-11-28T07:43:16.603Z,100047.44
2017-11-28T07:45:49.792Z,100048.22
2017-11-28T07:48:20.140Z,100058.44
2017-11-28T07:50:49.417Z,100052.82
2017-11-28T07:53:18.911Z,100055.00
2017-11-28T07:55:48.222Z,100061.89
2017-11-28T07:58:18.039Z,100069.22
2017-11-28T08:00:48.699Z,100082.20
2017-11-28T08:03:18.222Z,100080.59
2017-11-28T08:05:47.847Z,100072.70
2017-11-28T08:08:18.720Z,100070.30
2017-11-28T08:10:49.005Z,100060.19
2017-11-28T08:13:18.309Z,100056.72
2017-11-28T08:15:50.125Z,100065.16
2017-11-28T08:18:21.064Z,100055.86
2017-11-28T08:20:50.335Z,100055.86
2017-11-28T08:23:19.588Z,100052.06
2017-11-28T08:25:49.553Z,100053.82
2017-11-28T08:28:19.324Z,100053.91
2017-11-28T08:30:48.526Z,100056.81
2017-11-28T08:33:18.180Z,100047.99
2017-11-28T08:35:48.482Z,100044.72
2017-11-28T08:38:18.730Z,100053.58
2017-11-28T08:40:48.326Z,100051.89
2017-11-28T08:43:20.703Z,100057.89
2017-11-28T08:46:03.313Z,100058.30
2017-11-28T08:48:32.806Z,100062.62
2017-11-28T08:51:03.169Z,100076.09
2017-11-28T08:53:34.687Z,100072.78
2017-11-28T08:56:04.228Z,100069.47
2017-11-28T08:58:33.614Z,100070.75
2017-11-28T09:01:05.402Z,100075.42
2017-11-28T09:03:34.972Z,100074.16
2017-11-28T09:06:04.890Z,100073.31
2017-11-28T09:08:36.192Z,100074.58
2017-11-28T09:11:06.765Z,100086.41
2017-11-28T09:13:37.197Z,100082.59
2017-11-28T09:16:07.429Z,100078.41
2017-11-28T09:18:36.603Z,100076.73
2017-11-28T09:21:10.769Z,100075.44
2017-11-28T09:23:42.693Z,100078.83
2017-11-28T09:28:51.861Z,100085.99
2017-11-28T09:31:25.312Z,100078.42
2017-11-28T09:33:56.192Z,100067.00
2017-11-28T09:39:01.730Z,100082.61
2017-11-28T09:41:32.574Z,100080.93
2017-11-28T09:44:02.598Z,100083.05
2017-11-28T09:46:43.054Z,100077.56
2017-11-28T09:49:13.515Z,100080.94
2017-11-28T09:51:43.680Z,100083.00
2017-11-28T09:54:13.000Z,100091.48
2017-11-28T09:56:43.948Z,100077.98
2017-11-28T09:59:13.129Z,100085.12
2017-11-28T10:01:42.497Z,100087.61
2017-11-28T10:04:11.794Z,100091.41
2017-11-28T10:06:42.329Z,100100.25
2017-11-28T10:09:11.552Z,100099.78
2017-11-28T10:11:40.776Z,100090.12
2017-11-28T10:14:09.861Z,100094.72
2017-11-28T10:16:39.394Z,100095.97
2017-11-28T10:19:09.202Z,100095.98
2017-11-28T10:21:38.632Z,100099.33
2017-11-28T10:24:08.024Z,100100.19
2017-11-28T10:26:37.205Z,100100.17
2017-11-28T10:29:07.628Z,100105.25
2017-11-28T10:31:37.832Z,100098.97
2017-11-28T10:34:06.941Z,100090.40
2017-11-28T10:36:36.177Z,100087.46
2017-11-28T10:39:06.475Z,100088.73
2017-11-28T10:41:36.809Z,100077.34
2017-11-28T10:44:06.226Z,100086.98
2017-11-28T10:46:36.147Z,100082.83
2017-11-28T10:49:06.240Z,100076.49
2017-11-28T10:51:35.817Z,100079.37
2017-11-28T10:54:05.189Z,100073.89
2017-11-28T10:56:34.670Z,100072.61
2017-11-28T10:59:04.082Z,100072.56
2017-11-28T11:04:10.428Z,100071.77
2017-11-28T11:06:40.058Z,100072.20
2017-11-28T11:09:11.054Z,100073.48
2017-11-28T11:11:40.577Z,100065.55
2017-11-28T11:14:10.506Z,100057.91
2017-11-28T11:16:40.420Z,100061.61
2017-11-28T11:19:10.868Z,100070.81
2017-11-28T11:21:41.165Z,100065.77
2017-11-28T11:26:44.556Z,100080.41
2017-11-28T11:29:13.780Z,100073.17
2017-11-28T11:31:43.007Z,100081.70
2017-11-28T11:34:13.349Z,100085.23
2017-11-28T11:36:42.896Z,100074.75
2017-11-28T11:39:12.098Z,100073.06
2017-11-28T11:41:42.336Z,100082.76
2017-11-28T11:44:11.898Z,100089.55
2017-11-28T11:46:43.215Z,100084.51
2017-11-28T11:49:12.711Z,100092.94
2017-11-28T11:51:41.837Z,100094.20
2017-11-28T11:54:11.044Z,100097.52
2017-11-28T11:56:40.604Z,100087.47
2017-11-28T11:59:09.888Z,100094.60
2017-11-28T12:01:39.049Z,100098.84
2017-11-28T12:04:09.328Z,100089.22
2017-11-28T12:06:38.757Z,100099.35
2017-11-28T12:09:11.167Z,100097.25
2017-11-28T12:11:41.103Z,100099.36
2017-11-28T12:14:10.597Z,100094.33
2017-11-28T12:16:42.797Z,100094.71
2017-11-28T12:19:12.082Z,100091.26
2017-11-28T12:21:41.600Z,100089.06
2017-11-28T12:24:12.211Z,100090.23
2017-11-28T12:26:41.567Z,100089.71
2017-11-28T12:29:11.933Z,100091.36
2017-11-28T12:31:42.215Z,100089.55
2017-11-28T12:34:11.539Z,100089.10
2017-11-28T12:36:40.869Z,100089.44
2017-11-28T12:39:10.984Z,100092.25
2017-11-28T12:41:41.250Z,100087.56
2017-11-28T12:44:10.599Z,100097.20
2017-11-28T12:46:41.723Z,100083.70
2017-11-28T12:49:10.954Z,100079.52
2017-11-28T12:51:41.088Z,100067.55
2017-11-28T12:56:45.179Z,100086.14
2017-11-28T12:59:14.247Z,100091.89
2017-11-28T13:01:43.573Z,100089.88
2017-11-28T13:04:15.058Z,100089.05
2017-11-28T13:06:44.405Z,100081.59
2017-11-28T13:09:13.693Z,100086.25
2017-11-28T13:11:46.236Z,100087.52
2017-11-28T13:14:15.475Z,100093.44
2017-11-28T13:16:44.785Z,100092.67
2017-11-28T13:19:16.177Z,100106.16
2017-11-28T13:21:45.617Z,100092.71
2017-11-28T13:24:15.014Z,100102.28
2017-11-28T13:26:44.218Z,100102.67
2017-11-28T13:29:16.504Z,100123.23
2017-11-28T13:31:45.666Z,100113.52
2017-11-28T13:34:14.795Z,100112.94
2017-11-28T13:36:44.172Z,100130.44
2017-11-28T13:39:14.385Z,100128.77
2017-11-28T13:41:45.232Z,100131.25
2017-11-28T13:44:14.549Z,100136.88
2017-11-28T13:46:46.394Z,100143.98
2017-11-28T13:49:15.911Z,100143.27
2017-11-28T13:51:45.164Z,100141.13
2017-11-28T13:56:49.158Z,100143.37
2017-11-28T13:59:18.314Z,100148.32
2017-11-28T14:04:23.506Z,100151.78
2017-11-28T14:06:53.944Z,100153.31
2017-11-28T14:09:29.644Z,100152.54
2017-11-28T14:11:58.992Z,100160.20
2017-11-28T14:14:28.159Z,100156.00
2017-11-28T14:16:57.463Z,100163.13
2017-11-28T14:19:26.756Z,100163.25
2017-11-28T14:22:12.020Z,100168.73
2017-11-28T14:25:01.491Z,100170.82
2017-11-28T14:27:37.125Z,100160.99
2017-11-28T14:30:07.380Z,100178.75
2017-11-28T14:35:22.873Z,100178.19
2017-11-28T14:37:55.595Z,100170.41
2017-11-28T14:40:25.353Z,100177.65
2017-11-28T14:42:58.980Z,100177.69
2017-11-28T14:45:30.995Z,100176.91
2017-11-28T14:48:00.485Z,100181.34
2017-11-28T14:50:35.353Z,100189.70
2017-11-28T14:53:07.994Z,100191.83
2017-11-28T14:55:54.019Z,100194.80
2017-11-28T15:01:32.959Z,100202.94
2017-11-28T15:04:09.768Z,100207.95
2017-11-28T15:06:44.794Z,100206.67
2017-11-28T15:12:00.013Z,100198.23
2017-11-28T15:17:35.909Z,100207.47
2017-11-28T15:20:09.668Z,100202.39
2017-11-28T15:22:39.530Z,100195.64
2017-11-28T15:25:29.716Z,100183.72
2017-11-28T15:30:34.566Z,100180.77
2017-11-28T15:33:04.032Z,100187.44
2017-11-28T15:35:33.750Z,100201.45
2017-11-28T15:38:03.179Z,100192.65
2017-11-28T15:40:33.316Z,100202.67
2017-11-28T15:43:03.556Z,100205.25
2017-11-28T15:45:33.927Z,100204.41
2017-11-28T15:48:04.170Z,100201.89
2017-11-28T15:50:33.620Z,100211.55
2017-11-28T15:53:02.767Z,100194.17
2017-11-28T15:55:32.243Z,100211.06
2017-11-28T15:58:03.093Z,100209.24
2017-11-28T16:00:32.320Z,100224.86
2017-11-28T16:03:01.795Z,100223.29
2017-11-28T16:05:31.787Z,100216.80
2017-11-28T16:08:02.828Z,100214.61
2017-11-28T16:10:32.128Z,100221.73
2017-11-28T16:13:02.553Z,100215.31
2017-11-28T16:15:32.406Z,100218.72
2017-11-28T16:18:02.416Z,100224.34
2017-11-28T16:20:31.586Z,100215.20
2017-11-28T16:23:01.079Z,100215.16
2017-11-28T16:25:30.297Z,100217.89
2017-11-28T16:28:01.418Z,100218.23
2017-11-28T16:30:30.718Z,100210.66
2017-11-28T16:33:00.385Z,100213.49
2017-11-28T16:35:29.897Z,100215.68
2017-11-28T16:37:59.396Z,100200.14
2017-11-28T16:40:30.273Z,100206.86
2017-11-28T16:42:59.611Z,100209.38
2017-11-28T16:45:29.885Z,100207.92
2017-11-28T16:47:59.643Z,100205.33
2017-11-28T16:50:28.884Z,100201.12
2017-11-28T16:52:58.176Z,100187.96
2017-11-28T16:55:28.557Z,100192.11
2017-11-28T16:57:57.895Z,100199.86
2017-11-28T17:00:27.730Z,100202.58
2017-11-28T17:02:57.278Z,100213.75
2017-11-28T17:05:27.292Z,100209.31
2017-11-28T17:07:56.551Z,100222.91
2017-11-28T17:10:26.563Z,100216.74
2017-11-28T17:12:56.591Z,100228.78
2017-11-28T17:15:26.743Z,100228.00
2017-11-28T17:17:58.766Z,100230.45
2017-11-28T17:20:28.941Z,100228.48
2017-11-28T17:22:58.415Z,100230.10
2017-11-28T17:25:29.893Z,100226.03
2017-11-28T17:28:00.120Z,100230.27
2017-11-28T17:30:29.672Z,100227.84
2017-11-28T17:33:00.777Z,100228.05
2017-11-28T17:35:30.115Z,100232.67
2017-11-28T17:37:59.410Z,100238.20
2017-11-28T17:40:28.805Z,100230.67
2017-11-28T17:42:58.193Z,100227.75
2017-11-28T17:45:27.617Z,100228.59
2017-11-28T17:47:59.035Z,100227.59
2017-11-28T17:50:34.591Z,100230.52
2017-11-28T17:53:04.819Z,100236.03
2017-11-28T17:55:34.598Z,100227.19
2017-11-28T17:58:04.493Z,100231.77
2017-11-28T18:00:34.324Z,100228.88
2017-11-28T18:03:04.112Z,100228.05
2017-11-28T18:05:33.504Z,100234.85
2017-11-28T18:08:02.927Z,100218.80
2017-11-28T18:10:33.783Z,100224.28
2017-11-28T18:13:03.683Z,100231.84
2017-11-28T18:15:33.091Z,100224.14
2017-11-28T18:18:02.630Z,100219.59
2017-11-28T18:20:31.918Z,100222.26
2017-11-28T18:23:02.036Z,100217.11
2017-11-28T18:25:31.435Z,100221.24
2017-11-28T18:28:00.734Z,100214.11
2017-11-28T18:30:31.006Z,100222.96
2017-11-28T18:33:00.053Z,100218.41
2017-11-28T18:35:29.377Z,100221.20
2017-11-28T18:37:58.807Z,100218.33
2017-11-28T18:40:29.119Z,100215.39
2017-11-28T18:43:02.185Z,100212.02
2017-11-28T18:45:31.656Z,100225.88
2017-11-28T18:48:01.624Z,100211.27
2017-11-28T18:50:32.040Z,100222.67
2017-11-28T18:53:02.599Z,100214.18
2017-11-28T18:55:32.837Z,100215.55
2017-11-28T18:58:03.192Z,100230.16
2017-11-28T19:00:34.995Z,100228.83
2017-11-28T19:03:04.446Z,100225.88
2017-11-28T19:05:33.670Z,100224.14
2017-11-28T19:08:03.423Z,100222.45
2017-11-28T19:10:32.784Z,100218.72
2017-11-28T19:13:02.143Z,100218.69
2017-11-28T19:15:33.644Z,100220.03
2017-11-28T19:18:03.335Z,100222.05
2017-11-28T19:20:32.737Z,100225.47
2017-11-28T19:23:03.161Z,100211.94
2017-11-28T19:25:32.709Z,100219.90
2017-11-28T19:28:02.839Z,100217.76
2017-11-28T19:30:32.970Z,100222.47
2017-11-28T19:33:03.199Z,100222.88
2017-11-28T19:35:32.726Z,100220.78
2017-11-28T19:38:03.055Z,100214.13
2017-11-28T19:40:32.434Z,100219.06
2017-11-28T19:43:02.101Z,100225.79
2017-11-28T19:45:31.668Z,100222.47
2017-11-28T19:48:01.127Z,100222.44
2017-11-28T19:50:31.054Z,100224.13
2017-11-28T19:55:36.671Z,100231.25
2017-11-28T19:58:06.175Z,100237.66
2017-11-28T20:00:35.879Z,100242.62
2017-11-28T20:03:06.738Z,100232.98
2017-11-28T20:05:38.666Z,100243.86
2017-11-28T20:08:09.036Z,100240.58
2017-11-28T20:10:39.264Z,100240.72
2017-11-28T20:13:09.565Z,100241.14
2017-11-28T20:15:38.839Z,100242.62
2017-11-28T20:18:08.106Z,100240.53
2017-11-28T20:20:38.746Z,100245.03
2017-11-28T20:23:08.269Z,100242.56
2017-11-28T20:25:37.594Z,100247.23
2017-11-28T20:28:09.802Z,100239.23
2017-11-28T20:30:40.020Z,100233.34
2017-11-28T20:33:11.041Z,100229.91
2017-11-28T20:35:40.346Z,100222.40
2017-11-28T20:38:09.653Z,100236.67
2017-11-28T20:40:39.018Z,100235.39
2017-11-28T20:43:10.100Z,100228.23
2017-11-28T20:45:40.161Z,100230.78
2017-11-28T20:48:11.574Z,100239.16
2017-11-28T20:50:41.909Z,100235.38
2017-11-28T20:53:11.350Z,100233.23
2017-11-28T20:55:40.732Z,100221.97
2017-11-28T20:58:10.071Z,100229.14
2017-11-28T21:00:39.383Z,100233.10
2017-11-28T21:03:08.804Z,100232.65
2017-11-28T21:05:38.308Z,100235.25
2017-11-28T21:08:07.521Z,100247.37
2017-11-28T21:10:37.384Z,100254.88
2017-11-28T21:13:06.677Z,100263.75
2017-11-28T21:15:36.669Z,100269.67
2017-11-28T21:18:06.298Z,100281.19
2017-11-28T21:20:35.766Z,100283.73
2017-11-28T21:23:05.886Z,100280.31
2017-11-28T21:25:35.173Z,100279.18
2017-11-28T21:30:38.788Z,100266.30
2017-11-28T21:33:07.920Z,100267.20
2017-11-28T21:35:37.248Z,100262.98
2017-11-28T21:38:07.464Z,100262.66
2017-11-28T21:40:41.581Z,100259.63
2017-11-28T21:43:11.444Z,100251.44
2017-11-28T21:45:40.840Z,100269.88
2017-11-28T21:48:11.175Z,100268.74
2017-11-28T21:50:40.729Z,100280.29
2017-11-28T21:53:09.877Z,100284.12
2017-11-28T21:55:39.585Z,100280.80
2017-11-28T21:58:08.870Z,100278.64
2017-11-28T22:00:38.355Z,100283.91
2017-11-28T22:03:08.365Z,100285.16
2017-11-28T22:05:37.863Z,100287.72
2017-11-28T22:08:07.301Z,100294.64
2017-11-28T22:10:38.005Z,100300.91
2017-11-28T22:13:07.240Z,100302.92
2017-11-28T22:15:36.726Z,100303.44
2017-11-28T22:18:06.020Z,100311.13
2017-11-28T22:20:35.453Z,100310.45
2017-11-28T22:23:05.559Z,100317.74
2017-11-28T22:25:35.515Z,100311.86
2017-11-28T22:28:05.156Z,100319.48
2017-11-28T22:30:34.257Z,100319.55
2017-11-28T22:35:38.380Z,100320.29
2017-11-28T22:38:08.705Z,100319.55
2017-11-28T22:40:38.897Z,100314.91
2017-11-28T22:43:08.222Z,100319.06
2017-11-28T22:45:37.581Z,100310.94
2017-11-28T22:48:06.878Z,100308.96
2017-11-28T22:50:36.944Z,100316.61
2017-11-28T22:53:06.147Z,100313.06
2017-11-28T22:55:36.319Z,100315.98
2017-11-28T22:58:05.499Z,100308.89
2017-11-28T23:00:34.559Z,100298.34
2017-11-28T23:03:04.794Z,100308.20
2017-11-28T23:05:34.674Z,100304.30
2017-11-28T23:08:03.991Z,100310.27
2017-11-28T23:10:35.664Z,100308.09
2017-11-28T23:13:04.730Z,100310.17
2017-11-28T23:15:33.896Z,100322.44
2017-11-28T23:18:05.075Z,100322.32
2017-11-28T23:20:34.182Z,100322.82
2017-11-28T23:23:03.234Z,100320.89
2017-11-28T23:25:32.741Z,100318.48
2017-11-28T23:28:01.884Z,100323.99
2017-11-28T23:30:30.967Z,100318.67
2017-11-28T23:33:03.142Z,100321.27
2017-11-28T23:35:32.236Z,100326.34
2017-11-28T23:38:01.389Z,100330.53
2017-11-28T23:40:30.685Z,100341.67
2017-11-28T23:42:59.769Z,100341.72
2017-11-28T23:45:29.313Z,100349.11
2017-11-28T23:47:58.583Z,100367.88
2017-11-28T23:50:27.780Z,100358.84
2017-11-28T23:52:56.908Z,100364.53
2017-11-28T23:55:31.557Z,100357.55
2017-11-28T23:58:00.765Z,100359.87
